createdAt,value
2022-11-28T00:01:28.074Z,7.95
2022-11-28T00:03:54.947Z,7.07
2022-11-28T00:06:22.147Z,6.35
2022-11-28T00:08:49.254Z,6.68
2022-11-28T00:11:17.003Z,7.32
2022-11-28T00:13:44.937Z,6.60
2022-11-28T00:16:18.231Z,6.63
2022-11-28T00:18:45.221Z,6.53
2022-11-28T00:21:14.714Z,6.43
2022-11-28T00:23:43.491Z,6.95
2022-11-28T00:26:16.899Z,7.80
2022-11-28T00:28:43.891Z,6.55
2022-11-28T00:31:21.945Z,7.50
2022-11-28T00:33:49.205Z,6.40
2022-11-28T00:36:16.534Z,6.50
2022-11-28T00:38:43.717Z,5.68
2022-11-28T00:41:14.181Z,6.20
2022-11-28T00:43:42.335Z,5.95
2022-11-28T00:46:10.208Z,6.32
2022-11-28T00:48:37.339Z,5.72
2022-11-28T00:51:12.385Z,6.07
2022-11-28T00:53:42.017Z,6.05
2022-11-28T00:56:11.132Z,6.20
2022-11-28T00:58:39.771Z,6.82
2022-11-28T01:01:19.891Z,6.05
2022-11-28T01:03:47.347Z,6.70
2022-11-28T01:06:25.217Z,6.57
2022-11-28T01:08:52.650Z,7.22
2022-11-28T01:11:20.510Z,6.63
2022-11-28T01:13:48.078Z,6.75
2022-11-28T01:16:15.675Z,6.68
2022-11-28T01:18:42.751Z,5.30
2022-11-28T01:21:10.100Z,6.68
2022-11-28T01:23:37.406Z,5.50
2022-11-28T01:26:06.678Z,6.25
2022-11-28T01:28:34.996Z,5.80
2022-11-28T01:31:10.448Z,6.65
2022-11-28T01:33:38.058Z,7.15
2022-11-28T01:36:05.447Z,7.13
2022-11-28T01:38:33.776Z,6.22
2022-11-28T01:41:01.306Z,7.15
2022-11-28T01:43:28.212Z,7.47
2022-11-28T01:45:55.916Z,7.88
2022-11-28T01:48:33.084Z,6.88
2022-11-28T01:51:02.534Z,7.90
2022-11-28T01:53:31.855Z,7.55
2022-11-28T01:56:03.956Z,7.22
2022-11-28T01:58:32.707Z,8.13
2022-11-28T02:00:59.749Z,7.75
2022-11-28T02:03:34.441Z,6.93
2022-11-28T02:06:02.262Z,6.82
2022-11-28T02:08:34.300Z,7.28
2022-11-28T02:11:30.542Z,6.47
2022-11-28T02:14:09.538Z,7.63
2022-11-28T02:16:53.396Z,6.82
2022-11-28T02:19:39.001Z,7.07
2022-11-28T02:22:08.882Z,7.32
2022-11-28T02:24:35.732Z,7.55
2022-11-28T02:27:14.292Z,7.35
2022-11-28T02:30:02.792Z,7.90
2022-11-28T02:32:38.837Z,7.45
2022-11-28T02:35:17.661Z,7.05
2022-11-28T02:37:50.996Z,7.30
2022-11-28T02:40:17.858Z,8.40
2022-11-28T02:42:58.776Z,8.35
2022-11-28T02:45:46.948Z,7.57
2022-11-28T02:48:36.053Z,7.75
2022-11-28T02:51:13.747Z,6.85
2022-11-28T02:53:43.424Z,7.47
2022-11-28T02:56:11.749Z,7.43
2022-11-28T02:58:38.646Z,7.32
2022-11-28T03:01:12.695Z,7.72
2022-11-28T03:04:12.915Z,8.10
2022-11-28T03:06:53.294Z,7.80
2022-11-28T03:09:26.113Z,9.18
2022-11-28T03:12:19.647Z,8.18
2022-11-28T03:14:51.278Z,9.63
2022-11-28T03:17:18.106Z,9.10
2022-11-28T03:20:09.958Z,7.18
2022-11-28T03:22:59.806Z,9.43
2022-11-28T03:25:48.407Z,9.18
2022-11-28T03:28:43.908Z,8.02
2022-11-28T03:31:16.013Z,8.55
2022-11-28T03:33:49.057Z,8.02
2022-11-28T03:36:21.690Z,7.75
2022-11-28T03:38:54.280Z,8.40
2022-11-28T03:41:44.296Z,7.63
2022-11-28T03:44:17.221Z,7.80
2022-11-28T03:46:47.353Z,8.02
2022-11-28T03:49:19.562Z,7.43
2022-11-28T03:51:49.302Z,8.23
2022-11-28T03:54:32.399Z,7.30
2022-11-28T03:57:08.521Z,8.00
2022-11-28T03:59:43.232Z,8.13
2022-11-28T04:02:28.704Z,7.97
2022-11-28T04:05:15.957Z,7.60
2022-11-28T04:08:06.503Z,7.70
2022-11-28T04:10:43.970Z,8.73
2022-11-28T04:13:32.435Z,7.90
2022-11-28T04:16:05.581Z,7.80
2022-11-28T04:18:57.326Z,7.88
2022-11-28T04:21:41.613Z,7.07
2022-11-28T04:24:14.065Z,6.97
2022-11-28T04:26:55.253Z,7.68
2022-11-28T04:29:24.679Z,7.32
2022-11-28T04:31:56.237Z,7.57
2022-11-28T04:34:26.216Z,7.78
2022-11-28T04:36:55.489Z,7.93
2022-11-28T04:39:25.141Z,7.75
2022-11-28T04:41:56.606Z,7.80
2022-11-28T04:44:31.464Z,7.78
2022-11-28T04:46:58.803Z,8.27
2022-11-28T04:49:27.755Z,6.45
2022-11-28T04:52:04.664Z,6.25
2022-11-28T04:54:40.010Z,6.80
2022-11-28T04:59:52.401Z,6.20
2022-11-28T05:02:21.681Z,6.88
2022-11-28T05:04:48.629Z,6.85
2022-11-28T05:07:15.607Z,6.90
2022-11-28T05:09:42.588Z,7.40
2022-11-28T05:12:09.614Z,6.75
2022-11-28T05:14:36.524Z,7.07
2022-11-28T05:17:03.418Z,7.75
2022-11-28T05:19:30.316Z,6.80
2022-11-28T05:21:57.216Z,7.25
2022-11-28T05:24:27.946Z,7.78
2022-11-28T05:26:57.689Z,6.78
2022-11-28T05:29:25.623Z,7.32
2022-11-28T05:31:52.696Z,7.25
2022-11-28T05:34:19.621Z,8.43
2022-11-28T05:36:47.005Z,6.45
2022-11-28T05:39:13.862Z,7.85
2022-11-28T05:41:40.822Z,7.03
2022-11-28T05:44:07.730Z,8.43
2022-11-28T05:46:34.619Z,6.93
2022-11-28T05:49:01.966Z,8.20
2022-11-28T05:51:28.837Z,7.60
2022-11-28T05:53:55.909Z,7.85
2022-11-28T05:56:25.560Z,7.90
2022-11-28T05:58:54.059Z,7.15
2022-11-28T06:01:26.566Z,6.55
2022-11-28T06:04:00.012Z,7.00
2022-11-28T06:06:29.316Z,6.72
2022-11-28T06:08:56.538Z,8.07
2022-11-28T06:11:25.960Z,7.90
2022-11-28T06:13:53.333Z,5.90
2022-11-28T06:16:23.180Z,8.15
2022-11-28T06:18:58.930Z,7.97
2022-11-28T06:21:26.434Z,7.80
2022-11-28T06:23:53.784Z,7.65
2022-11-28T06:26:22.972Z,8.40
2022-11-28T06:28:50.600Z,7.55
2022-11-28T06:31:23.506Z,8.65
2022-11-28T06:33:51.546Z,7.40
2022-11-28T06:36:19.478Z,8.48
2022-11-28T06:38:47.213Z,7.57
2022-11-28T06:41:17.707Z,8.45
2022-11-28T06:43:44.880Z,8.38
2022-11-28T06:46:19.025Z,7.78
2022-11-28T06:48:47.519Z,6.85
2022-11-28T06:51:15.223Z,7.30
2022-11-28T06:53:42.819Z,7.75
2022-11-28T06:56:14.177Z,8.30
2022-11-28T06:58:42.179Z,8.75
2022-11-28T07:01:14.955Z,8.20
2022-11-28T07:03:42.312Z,8.90
2022-11-28T07:06:09.639Z,7.07
2022-11-28T07:08:37.270Z,7.10
2022-11-28T07:11:24.851Z,6.50
2022-11-28T07:13:54.594Z,7.45
2022-11-28T07:16:30.339Z,8.27
2022-11-28T07:18:58.294Z,7.68
2022-11-28T07:21:26.343Z,6.53
2022-11-28T07:23:53.561Z,8.13
2022-11-28T07:26:21.723Z,8.48
2022-11-28T07:28:49.857Z,7.65
2022-11-28T07:31:20.918Z,6.32
2022-11-28T07:33:50.178Z,6.78
2022-11-28T07:36:20.954Z,7.70
2022-11-28T07:38:55.046Z,7.65
2022-11-28T07:41:26.425Z,6.72
2022-11-28T07:43:56.923Z,7.18
2022-11-28T07:46:24.646Z,7.57
2022-11-28T07:48:52.011Z,7.30
2022-11-28T07:51:25.498Z,7.38
2022-11-28T07:53:52.915Z,6.20
2022-11-28T07:56:23.148Z,6.18
2022-11-28T07:58:50.275Z,7.20
2022-11-28T08:01:22.517Z,6.72
2022-11-28T08:03:49.901Z,7.75
2022-11-28T08:06:19.061Z,6.22
2022-11-28T08:08:47.420Z,6.93
2022-11-28T08:11:16.249Z,6.78
2022-11-28T08:13:44.125Z,6.20
2022-11-28T08:16:17.583Z,6.57
2022-11-28T08:18:45.451Z,7.97
2022-11-28T08:21:18.052Z,6.60
2022-11-28T08:23:47.944Z,6.95
2022-11-28T08:26:16.878Z,7.80
2022-11-28T08:28:44.371Z,6.88
2022-11-28T08:31:12.966Z,7.70
2022-11-28T08:33:40.309Z,7.15
2022-11-28T08:36:09.039Z,7.05
2022-11-28T08:38:36.350Z,6.30
2022-11-28T08:41:14.295Z,6.57
2022-11-28T08:43:41.814Z,8.02
2022-11-28T08:46:18.104Z,6.68
2022-11-28T08:48:45.062Z,7.10
2022-11-28T08:51:16.917Z,6.03
2022-11-28T08:53:48.660Z,6.78
2022-11-28T08:56:16.436Z,6.78
2022-11-28T08:58:43.293Z,6.80
2022-11-28T09:01:22.046Z,6.80
2022-11-28T09:03:49.556Z,5.70
2022-11-28T09:06:18.125Z,8.02
2022-11-28T09:08:45.605Z,7.22
2022-11-28T09:11:14.881Z,7.38
2022-11-28T09:13:42.165Z,7.38
2022-11-28T09:16:09.523Z,7.00
2022-11-28T09:18:36.514Z,7.20
2022-11-28T09:21:09.534Z,7.30
2022-11-28T09:23:37.914Z,7.35
2022-11-28T09:26:13.061Z,7.50
2022-11-28T09:28:39.974Z,7.53
2022-11-28T09:31:07.892Z,7.95
2022-11-28T09:33:35.876Z,6.70
2022-11-28T09:36:11.854Z,7.18
2022-11-28T09:38:38.843Z,7.50
2022-11-28T09:41:43.110Z,8.65
2022-11-28T09:44:22.370Z,7.93
2022-11-28T09:46:53.673Z,6.97
2022-11-28T09:49:41.079Z,7.38
2022-11-28T09:52:26.432Z,6.68
2022-11-28T09:55:05.560Z,7.05
2022-11-28T09:57:37.429Z,6.30
2022-11-28T10:00:06.310Z,6.97
2022-11-28T10:03:01.425Z,7.00
2022-11-28T10:05:46.228Z,6.60
2022-11-28T10:08:25.797Z,7.28
2022-11-28T10:11:21.141Z,5.32
2022-11-28T10:14:23.138Z,7.05
2022-11-28T10:17:01.954Z,5.80
2022-11-28T10:19:54.600Z,6.18
2022-11-28T10:22:45.647Z,7.13
2022-11-28T10:25:20.000Z,7.78
2022-11-28T10:27:49.244Z,7.35
2022-11-28T10:30:22.728Z,6.47
2022-11-28T10:33:17.146Z,6.05
2022-11-28T10:36:03.800Z,5.95
2022-11-28T10:38:34.837Z,6.90
2022-11-28T10:41:21.155Z,7.05
2022-11-28T10:44:08.166Z,7.97
2022-11-28T10:47:07.206Z,8.75
2022-11-28T10:49:58.537Z,8.65
2022-11-28T10:52:58.486Z,6.90
2022-11-28T10:56:11.581Z,7.68
2022-11-28T10:59:05.350Z,6.50
2022-11-28T11:01:37.988Z,8.55
2022-11-28T11:04:06.516Z,7.22
2022-11-28T11:06:41.812Z,8.25
2022-11-28T11:09:15.196Z,8.95
2022-11-28T11:11:57.729Z,7.00
2022-11-28T11:14:41.965Z,7.97
2022-11-28T11:17:26.652Z,7.43
2022-11-28T11:19:56.272Z,7.60
2022-11-28T11:22:32.067Z,7.78
2022-11-28T11:25:17.543Z,7.50
2022-11-28T11:27:50.669Z,8.57
2022-11-28T11:30:19.164Z,9.30
2022-11-28T11:32:51.594Z,8.63
2022-11-28T11:35:24.310Z,8.45
2022-11-28T11:37:51.916Z,10.05
2022-11-28T11:40:29.149Z,10.43
2022-11-28T11:42:59.076Z,9.88
2022-11-28T11:45:32.067Z,9.60
2022-11-28T11:47:59.429Z,10.13
2022-11-28T11:50:29.647Z,11.18
2022-11-28T11:53:14.214Z,9.98
2022-11-28T11:55:53.692Z,9.13
2022-11-28T11:58:25.439Z,9.32
2022-11-28T12:00:56.579Z,9.27
2022-11-28T12:03:31.197Z,8.52
2022-11-28T12:06:14.208Z,11.73
2022-11-28T12:08:54.000Z,9.88
2022-11-28T12:11:32.238Z,9.73
2022-11-28T12:14:05.192Z,10.63
2022-11-28T12:16:52.390Z,9.07
2022-11-28T12:19:44.265Z,10.20
2022-11-28T12:22:12.251Z,9.82
2022-11-28T12:25:03.357Z,9.73
2022-11-28T12:28:00.037Z,10.43
2022-11-28T12:30:33.645Z,9.50
2022-11-28T12:33:17.071Z,9.05
2022-11-28T12:36:04.425Z,9.50
2022-11-28T12:38:54.152Z,9.73
2022-11-28T12:41:42.383Z,8.75
2022-11-28T12:44:29.038Z,10.27
2022-11-28T12:47:19.973Z,9.95
2022-11-28T12:49:55.532Z,10.02
2022-11-28T12:52:44.598Z,9.93
2022-11-28T12:55:23.327Z,9.20
2022-11-28T12:58:22.650Z,9.75
2022-11-28T13:01:31.695Z,8.80
2022-11-28T13:04:10.426Z,9.15
2022-11-28T13:07:08.902Z,7.82
2022-11-28T13:09:42.559Z,7.93
2022-11-28T13:12:33.773Z,8.25
2022-11-28T13:15:08.635Z,8.35
2022-11-28T13:17:47.393Z,6.82
2022-11-28T13:20:26.403Z,8.23
2022-11-28T13:23:11.870Z,8.23
2022-11-28T13:25:44.137Z,7.95
2022-11-28T13:28:33.977Z,8.90
2022-11-28T13:31:12.566Z,8.00
2022-11-28T13:33:48.330Z,8.73
2022-11-28T13:39:23.264Z,9.10
2022-11-28T13:43:02.922Z,7.72
2022-11-28T13:45:34.995Z,7.55
2022-11-28T13:51:33.552Z,7.95
2022-11-28T13:54:19.423Z,8.52
2022-11-28T13:56:48.778Z,6.38
2022-11-28T13:59:25.443Z,7.68
2022-11-28T14:02:02.288Z,9.05
2022-11-28T14:04:32.219Z,8.10
2022-11-28T14:07:05.725Z,7.05
2022-11-28T14:09:47.706Z,7.53
2022-11-28T14:12:27.877Z,8.00
2022-11-28T14:15:19.505Z,7.13
2022-11-28T14:18:01.494Z,8.55
2022-11-28T14:20:39.595Z,8.45
2022-11-28T14:23:35.185Z,8.75
2022-11-28T14:26:02.336Z,8.25
2022-11-28T14:28:37.037Z,8.45
2022-11-28T14:31:07.903Z,7.80
2022-11-28T14:33:40.458Z,8.10
2022-11-28T14:36:31.669Z,8.68
2022-11-28T14:39:20.145Z,8.07
2022-11-28T14:42:06.667Z,7.25
2022-11-28T14:44:52.711Z,8.60
2022-11-28T14:47:35.061Z,7.20
2022-11-28T14:50:05.567Z,7.10
2022-11-28T14:52:39.450Z,6.93
2022-11-28T14:55:10.957Z,7.80
2022-11-28T14:58:04.038Z,8.77
2022-11-28T15:00:49.559Z,7.93
2022-11-28T15:03:16.517Z,9.07
2022-11-28T15:06:09.225Z,9.60
2022-11-28T15:08:48.333Z,8.10
2022-11-28T15:11:38.439Z,9.10
2022-11-28T15:14:10.983Z,7.95
2022-11-28T15:16:50.228Z,9.20
2022-11-28T15:19:31.047Z,9.02
2022-11-28T15:21:58.030Z,8.75
2022-11-28T15:24:36.567Z,9.13
2022-11-28T15:27:12.494Z,9.07
2022-11-28T15:29:39.825Z,8.05
2022-11-28T15:32:07.205Z,8.88
2022-11-28T15:34:36.334Z,9.25
2022-11-28T15:37:16.413Z,10.70
2022-11-28T15:39:47.607Z,9.93
2022-11-28T15:42:29.604Z,11.18
2022-11-28T15:45:07.875Z,8.10
2022-11-28T15:47:35.120Z,9.65
2022-11-28T15:50:22.219Z,9.35
2022-11-28T15:53:03.892Z,8.18
2022-11-28T15:55:32.810Z,9.18
2022-11-28T15:58:29.210Z,9.15
2022-11-28T16:03:56.803Z,9.85
2022-11-28T16:06:29.021Z,9.27
2022-11-28T16:09:23.572Z,9.00
2022-11-28T16:11:52.808Z,8.65
2022-11-28T16:14:29.970Z,8.75
2022-11-28T16:17:02.292Z,8.55
2022-11-28T16:19:33.149Z,8.00
2022-11-28T16:22:02.605Z,8.90
2022-11-28T16:24:45.289Z,9.00
2022-11-28T16:27:35.245Z,8.27
2022-11-28T16:30:23.614Z,6.55
2022-11-28T16:32:52.971Z,9.85
2022-11-28T16:35:30.311Z,9.02
2022-11-28T16:38:33.317Z,7.78
2022-11-28T16:41:03.736Z,9.52
2022-11-28T16:43:37.710Z,8.45
2022-11-28T16:46:06.932Z,9.15
2022-11-28T16:48:46.240Z,8.02
2022-11-28T16:51:13.396Z,9.10
2022-11-28T16:53:44.307Z,7.35
2022-11-28T16:56:29.331Z,8.18
2022-11-28T16:59:09.441Z,8.23
2022-11-28T17:01:36.629Z,8.65
2022-11-28T17:04:04.634Z,9.65
2022-11-28T17:06:39.292Z,9.23
2022-11-28T17:09:09.511Z,9.60
2022-11-28T17:11:40.188Z,8.30
2022-11-28T17:14:13.226Z,7.43
2022-11-28T17:16:41.748Z,8.63
2022-11-28T17:19:08.985Z,9.45
2022-11-28T17:22:05.447Z,9.82
2022-11-28T17:24:34.950Z,10.75
2022-11-28T17:27:02.633Z,8.82
2022-11-28T17:29:29.678Z,9.05
2022-11-28T17:31:58.946Z,9.25
2022-11-28T17:34:31.740Z,10.85
2022-11-28T17:37:00.458Z,9.70
2022-11-28T17:39:28.282Z,9.43
2022-11-28T17:41:56.937Z,9.85
2022-11-28T17:44:32.484Z,10.55
2022-11-28T17:47:01.280Z,10.07
2022-11-28T17:49:29.626Z,11.57
2022-11-28T17:51:57.602Z,11.00
2022-11-28T17:54:25.896Z,10.02
2022-11-28T17:56:55.795Z,9.75
2022-11-28T17:59:24.569Z,10.90
2022-11-28T18:01:52.123Z,10.80
2022-11-28T18:04:23.875Z,7.05
2022-11-28T18:06:50.839Z,11.00
2022-11-28T18:09:17.960Z,10.70
2022-11-28T18:11:46.941Z,11.48
2022-11-28T18:14:14.715Z,10.98
2022-11-28T18:16:44.061Z,12.25
2022-11-28T18:19:11.340Z,10.60
2022-11-28T18:21:39.025Z,10.05
2022-11-28T18:24:06.238Z,12.07
2022-11-28T18:26:33.348Z,11.35
2022-11-28T18:29:00.412Z,11.90
2022-11-28T18:31:29.052Z,11.68
2022-11-28T18:34:02.079Z,11.90
2022-11-28T18:36:36.170Z,12.55
2022-11-28T18:39:09.196Z,10.85
2022-11-28T18:41:36.350Z,12.45
2022-11-28T18:44:04.820Z,9.57
2022-11-28T18:46:33.212Z,11.45
2022-11-28T18:49:00.799Z,12.68
2022-11-28T18:51:30.118Z,12.20
2022-11-28T18:53:58.679Z,11.50
2022-11-28T18:56:26.497Z,11.32
2022-11-28T18:58:55.235Z,10.98
2022-11-28T19:01:29.162Z,11.23
2022-11-28T19:04:02.161Z,11.32
2022-11-28T19:06:30.193Z,11.18
2022-11-28T19:08:59.659Z,10.05
2022-11-28T19:11:28.722Z,11.48
2022-11-28T19:13:57.299Z,11.23
2022-11-28T19:16:26.884Z,10.75
2022-11-28T19:18:55.673Z,12.30
2022-11-28T19:21:28.378Z,11.23
2022-11-28T19:23:56.973Z,8.50
2022-11-28T19:26:26.821Z,11.27
2022-11-28T19:28:54.450Z,10.95
2022-11-28T19:31:27.316Z,10.63
2022-11-28T19:34:02.243Z,9.18
2022-11-28T19:36:36.493Z,10.02
2022-11-28T19:39:05.236Z,9.00
2022-11-28T19:41:32.700Z,10.13
2022-11-28T19:44:00.483Z,9.88
2022-11-28T19:46:35.041Z,9.27
2022-11-28T19:49:05.219Z,10.20
2022-11-28T19:51:32.289Z,10.63
2022-11-28T19:54:03.593Z,10.57
2022-11-28T19:56:32.495Z,10.73
2022-11-28T19:58:59.719Z,9.95
2022-11-28T20:01:28.346Z,10.57
2022-11-28T20:03:56.057Z,10.88
2022-11-28T20:06:25.816Z,11.05
2022-11-28T20:08:54.633Z,9.68
2022-11-28T20:11:25.977Z,9.15
2022-11-28T20:14:03.925Z,10.68
2022-11-28T20:16:32.568Z,10.07
2022-11-28T20:19:00.800Z,10.10
2022-11-28T20:21:29.087Z,9.70
2022-11-28T20:24:02.756Z,11.55
2022-11-28T20:26:30.911Z,11.38
2022-11-28T20:28:58.322Z,11.35
2022-11-28T20:31:28.342Z,10.80
2022-11-28T20:33:55.288Z,10.38
2022-11-28T20:36:24.788Z,10.73
2022-11-28T20:38:53.328Z,8.77
2022-11-28T20:41:22.822Z,9.50
2022-11-28T20:43:49.916Z,8.80
2022-11-28T20:46:27.533Z,9.30
2022-11-28T20:48:56.432Z,10.57
2022-11-28T20:51:25.931Z,9.65
2022-11-28T20:53:53.725Z,9.90
2022-11-28T20:56:26.418Z,11.63
2022-11-28T20:58:53.328Z,11.50
2022-11-28T21:01:22.637Z,10.77
2022-11-28T21:03:50.524Z,10.63
2022-11-28T21:06:18.370Z,11.35
2022-11-28T21:08:45.539Z,9.90
2022-11-28T21:11:30.954Z,11.50
2022-11-28T21:14:02.947Z,9.07
2022-11-28T21:16:31.753Z,11.75
2022-11-28T21:19:06.263Z,11.52
2022-11-28T21:21:35.221Z,9.90
2022-11-28T21:24:05.005Z,10.73
2022-11-28T21:26:37.631Z,11.85
2022-11-28T21:29:09.129Z,10.75
2022-11-28T21:31:40.123Z,9.23
2022-11-28T21:34:07.093Z,11.40
2022-11-28T21:36:34.007Z,8.73
2022-11-28T21:39:01.638Z,11.02
2022-11-28T21:41:32.916Z,11.10
2022-11-28T21:44:00.543Z,10.30
2022-11-28T21:46:28.635Z,11.43
2022-11-28T21:48:57.836Z,10.60
2022-11-28T21:51:26.016Z,9.60
2022-11-28T21:53:57.528Z,11.73
2022-11-28T21:56:25.119Z,11.52
2022-11-28T21:58:53.480Z,9.63
2022-11-28T22:01:21.495Z,11.48
2022-11-28T22:03:48.953Z,11.02
2022-11-28T22:06:26.943Z,12.45
2022-11-28T22:08:55.096Z,11.85
2022-11-28T22:11:22.803Z,12.18
2022-11-28T22:13:51.194Z,9.82
2022-11-28T22:16:23.912Z,10.32
2022-11-28T22:18:52.723Z,10.65
2022-11-28T22:21:50.718Z,10.50
2022-11-28T22:24:08.232Z,9.75
2022-11-28T22:26:35.642Z,10.43
2022-11-28T22:29:04.316Z,10.85
2022-11-28T22:31:33.143Z,10.13
2022-11-28T22:34:00.209Z,9.82
2022-11-28T22:36:27.649Z,9.70
2022-11-28T22:38:57.187Z,9.13
2022-11-28T22:41:29.373Z,9.82
2022-11-28T22:44:01.023Z,9.98
2022-11-28T22:46:30.603Z,8.00
2022-11-28T22:49:00.693Z,10.20
2022-11-28T22:51:29.329Z,9.30
2022-11-28T22:54:01.393Z,7.57
2022-11-28T22:56:31.542Z,8.45
2022-11-28T22:58:59.778Z,7.25
2022-11-28T23:01:30.054Z,6.78
2022-11-28T23:03:58.017Z,8.68
2022-11-28T23:06:30.668Z,7.88
2022-11-28T23:08:59.698Z,7.43
2022-11-28T23:11:31.026Z,7.18
2022-11-28T23:13:59.170Z,7.10
2022-11-28T23:16:30.200Z,6.82
2022-11-28T23:18:59.654Z,6.93
2022-11-28T23:21:30.429Z,7.90
2022-11-28T23:23:58.485Z,6.55
2022-11-28T23:26:28.993Z,7.30
2022-11-28T23:28:58.059Z,6.82
2022-11-28T23:31:27.867Z,6.18
2022-11-28T23:33:55.216Z,5.72
2022-11-28T23:36:22.539Z,6.15
2022-11-28T23:39:00.974Z,5.40
2022-11-28T23:41:29.265Z,5.75
2022-11-28T23:43:57.136Z,6.38
2022-11-28T23:46:25.647Z,6.18
2022-11-28T23:48:52.935Z,4.60
2022-11-28T23:51:21.940Z,5.70
2022-11-28T23:53:50.151Z,4.28
2022-11-28T23:56:21.343Z,5.95
2022-11-28T23:58:48.771Z,5.38
